sensor_id;sensor_type;location;lat;lon;timestamp;pressure;altitude;pressure_sealevel;temperature;humidity
63111;BME280;49201;53.426;10.300;2022-08-11T00:02:32;102560.81;;;18.60;72.02
63111;BME280;49201;53.426;10.300;2022-08-11T00:05:03;102558.03;;;18.50;71.89
63111;BME280;49201;53.426;10.300;2022-08-11T00:07:30;102561.53;;;18.50;72.55
63111;BME280;49201;53.426;10.300;2022-08-11T00:09:56;102559.31;;;18.21;74.04
63111;BME280;49201;53.426;10.300;2022-08-11T00:12:24;102565.44;;;18.26;73.62
63111;BME280;49201;53.426;10.300;2022-08-11T00:14:58;102566.91;;;18.10;74.59
63111;BME280;49201;53.426;10.300;2022-08-11T00:17:30;102561.56;;;18.01;75.43
63111;BME280;49201;53.426;10.300;2022-08-11T00:20:07;102565.91;;;18.04;75.13
63111;BME280;49201;53.426;10.300;2022-08-11T00:22:37;102563.09;;;17.90;75.56
63111;BME280;49201;53.426;10.300;2022-08-11T00:25:11;102564.88;;;17.93;75.71
63111;BME280;49201;53.426;10.300;2022-08-11T00:27:39;102567.41;;;17.88;75.63
63111;BME280;49201;53.426;10.300;2022-08-11T00:30:06;102562.00;;;17.76;75.98
63111;BME280;49201;53.426;10.300;2022-08-11T00:32:33;102562.72;;;17.69;76.03
63111;BME280;49201;53.426;10.300;2022-08-11T00:35:00;102561.88;;;17.69;76.28
63111;BME280;49201;53.426;10.300;2022-08-11T00:37:27;102562.63;;;17.63;76.27
63111;BME280;49201;53.426;10.300;2022-08-11T00:39:54;102559.16;;;17.63;76.24
63111;BME280;49201;53.426;10.300;2022-08-11T00:42:40;102566.75;;;17.52;76.93
63111;BME280;49201;53.426;10.300;2022-08-11T00:45:25;102558.78;;;17.43;77.13
63111;BME280;49201;53.426;10.300;2022-08-11T00:48:31;102559.56;;;17.39;76.98
63111;BME280;49201;53.426;10.300;2022-08-11T00:51:34;102553.41;;;17.34;77.17
63111;BME280;49201;53.426;10.300;2022-08-11T01:00:15;102567.69;;;17.16;78.20
63111;BME280;49201;53.426;10.300;2022-08-11T01:19:20;102572.28;;;16.89;80.17
63111;BME280;49201;53.426;10.300;2022-08-11T01:31:10;102564.97;;;16.70;80.08
63111;BME280;49201;53.426;10.300;2022-08-11T01:48:27;102572.09;;;16.41;80.46
63111;BME280;49201;53.426;10.300;2022-08-11T01:51:13;102576.25;;;16.36;81.13
63111;BME280;49201;53.426;10.300;2022-08-11T01:53:56;102570.16;;;16.34;81.43
63111;BME280;49201;53.426;10.300;2022-08-11T02:10:56;102570.31;;;16.06;82.70
63111;BME280;49201;53.426;10.300;2022-08-11T02:17:14;102575.41;;;16.03;82.76
63111;BME280;49201;53.426;10.300;2022-08-11T02:19:56;102569.34;;;16.01;83.08
63111;BME280;49201;53.426;10.300;2022-08-11T02:22:50;102566.56;;;15.94;83.72
63111;BME280;49201;53.426;10.300;2022-08-11T02:25:54;102560.28;;;15.84;83.64
63111;BME280;49201;53.426;10.300;2022-08-11T02:28:28;102563.78;;;15.86;84.25
63111;BME280;49201;53.426;10.300;2022-08-11T02:33:43;102567.69;;;15.71;85.06
63111;BME280;49201;53.426;10.300;2022-08-11T02:36:18;102568.75;;;15.79;85.36
63111;BME280;49201;53.426;10.300;2022-08-11T02:42:29;102563.41;;;15.73;84.77
63111;BME280;49201;53.426;10.300;2022-08-11T02:53:44;102561.34;;;15.60;84.42
63111;BME280;49201;53.426;10.300;2022-08-11T02:59:10;102564.47;;;15.48;85.68
63111;BME280;49201;53.426;10.300;2022-08-11T03:02:19;102565.25;;;15.46;84.61
63111;BME280;49201;53.426;10.300;2022-08-11T03:05:05;102573.53;;;15.34;85.47
63111;BME280;49201;53.426;10.300;2022-08-11T03:10:22;102565.09;;;15.40;85.22
63111;BME280;49201;53.426;10.300;2022-08-11T03:13:15;102561.34;;;15.29;84.99
63111;BME280;49201;53.426;10.300;2022-08-11T03:16:26;102563.06;;;15.30;85.16
63111;BME280;49201;53.426;10.300;2022-08-11T03:19:46;102565.56;;;15.27;84.58
63111;BME280;49201;53.426;10.300;2022-08-11T03:22:33;102561.97;;;15.22;84.76
63111;BME280;49201;53.426;10.300;2022-08-11T03:25:20;102557.50;;;15.15;85.31
63111;BME280;49201;53.426;10.300;2022-08-11T03:29:16;102564.41;;;15.16;84.70
63111;BME280;49201;53.426;10.300;2022-08-11T03:31:21;102564.28;;;15.13;85.42
63111;BME280;49201;53.426;10.300;2022-08-11T03:34:03;102561.59;;;15.08;85.36
63111;BME280;49201;53.426;10.300;2022-08-11T03:51:02;102561.22;;;14.96;85.17
63111;BME280;49201;53.426;10.300;2022-08-11T03:59:32;102571.44;;;14.92;86.24
63111;BME280;49201;53.426;10.300;2022-08-11T04:24:41;102562.16;;;14.98;87.03
63111;BME280;49201;53.426;10.300;2022-08-11T04:36:01;102566.28;;;14.92;87.82
63111;BME280;49201;53.426;10.300;2022-08-11T04:39:09;102570.97;;;15.05;87.33
63111;BME280;49201;53.426;10.300;2022-08-11T04:48:26;102554.31;;;15.25;87.40
63111;BME280;49201;53.426;10.300;2022-08-11T04:55:06;102557.31;;;15.38;87.67
63111;BME280;49201;53.426;10.300;2022-08-11T04:58:05;102550.72;;;15.48;87.18
63111;BME280;49201;53.426;10.300;2022-08-11T05:13:01;102553.34;;;16.16;86.04
63111;BME280;49201;53.426;10.300;2022-08-11T05:15:53;102558.78;;;16.28;85.61
63111;BME280;49201;53.426;10.300;2022-08-11T05:18:51;102556.56;;;16.41;84.36
63111;BME280;49201;53.426;10.300;2022-08-11T05:21:39;102553.44;;;16.56;83.41
63111;BME280;49201;53.426;10.300;2022-08-11T05:24:29;102549.44;;;16.68;83.63
63111;BME280;49201;53.426;10.300;2022-08-11T05:27:18;102550.72;;;16.88;83.16
63111;BME280;49201;53.426;10.300;2022-08-11T05:30:06;102559.72;;;17.07;82.50
63111;BME280;49201;53.426;10.300;2022-08-11T05:33:07;102553.25;;;17.27;82.01
63111;BME280;49201;53.426;10.300;2022-08-11T05:36:11;102561.41;;;17.45;81.67
63111;BME280;49201;53.426;10.300;2022-08-11T05:38:49;102560.00;;;17.62;81.04
63111;BME280;49201;53.426;10.300;2022-08-11T05:41:38;102555.22;;;17.83;80.66
63111;BME280;49201;53.426;10.300;2022-08-11T05:44:23;102553.75;;;17.98;80.20
63111;BME280;49201;53.426;10.300;2022-08-11T05:47:10;102553.09;;;18.13;79.97
63111;BME280;49201;53.426;10.300;2022-08-11T05:49:55;102551.59;;;18.27;79.43
63111;BME280;49201;53.426;10.300;2022-08-11T05:52:44;102540.72;;;18.47;78.37
63111;BME280;49201;53.426;10.300;2022-08-11T05:58:43;102546.41;;;18.83;77.50
63111;BME280;49201;53.426;10.300;2022-08-11T06:01:12;102547.44;;;18.96;77.26
63111;BME280;49201;53.426;10.300;2022-08-11T06:03:38;102544.22;;;19.16;77.42
63111;BME280;49201;53.426;10.300;2022-08-11T06:06:26;102540.97;;;19.31;76.07
63111;BME280;49201;53.426;10.300;2022-08-11T06:08:56;102547.16;;;19.42;74.85
63111;BME280;49201;53.426;10.300;2022-08-11T06:11:24;102546.38;;;19.52;73.93
63111;BME280;49201;53.426;10.300;2022-08-11T06:13:51;102543.97;;;19.70;73.11
63111;BME280;49201;53.426;10.300;2022-08-11T06:16:22;102555.41;;;19.88;72.50
63111;BME280;49201;53.426;10.300;2022-08-11T06:18:49;102547.81;;;20.08;72.20
63111;BME280;49201;53.426;10.300;2022-08-11T06:21:15;102549.66;;;20.19;71.63
63111;BME280;49201;53.426;10.300;2022-08-11T06:23:43;102544.50;;;20.31;72.03
63111;BME280;49201;53.426;10.300;2022-08-11T06:26:11;102544.63;;;20.48;71.24
63111;BME280;49201;53.426;10.300;2022-08-11T06:28:39;102547.31;;;20.60;69.69
63111;BME280;49201;53.426;10.300;2022-08-11T06:31:12;102551.78;;;20.85;69.16
63111;BME280;49201;53.426;10.300;2022-08-11T06:37:00;102549.34;;;21.21;65.36
63111;BME280;49201;53.426;10.300;2022-08-11T06:39:59;102556.34;;;21.40;64.03
63111;BME280;49201;53.426;10.300;2022-08-11T06:42:49;102546.84;;;21.49;62.96
63111;BME280;49201;53.426;10.300;2022-08-11T06:47:43;102554.75;;;21.91;60.72
63111;BME280;49201;53.426;10.300;2022-08-11T06:50:16;102544.28;;;22.15;59.77
63111;BME280;49201;53.426;10.300;2022-08-11T06:53:05;102540.81;;;22.30;58.47
63111;BME280;49201;53.426;10.300;2022-08-11T06:55:33;102545.16;;;22.48;59.29
63111;BME280;49201;53.426;10.300;2022-08-11T06:58:20;102540.78;;;22.65;58.65
63111;BME280;49201;53.426;10.300;2022-08-11T07:01:09;102528.50;;;22.85;57.29
63111;BME280;49201;53.426;10.300;2022-08-11T07:03:44;102529.28;;;23.06;57.23
63111;BME280;49201;53.426;10.300;2022-08-11T07:14:53;102535.94;;;23.61;55.94
63111;BME280;49201;53.426;10.300;2022-08-11T07:17:44;102530.63;;;23.73;54.66
63111;BME280;49201;53.426;10.300;2022-08-11T07:20:14;102527.91;;;23.87;55.70
63111;BME280;49201;53.426;10.300;2022-08-11T07:23:01;102529.44;;;24.13;55.23
63111;BME280;49201;53.426;10.300;2022-08-11T07:25:51;102532.69;;;24.36;54.36
63111;BME280;49201;53.426;10.300;2022-08-11T07:28:39;102532.78;;;24.27;52.73
63111;BME280;49201;53.426;10.300;2022-08-11T07:34:02;102527.78;;;24.88;53.44
63111;BME280;49201;53.426;10.300;2022-08-11T07:36:30;102531.09;;;25.03;52.05
63111;BME280;49201;53.426;10.300;2022-08-11T07:38:57;102525.84;;;25.05;51.64
63111;BME280;49201;53.426;10.300;2022-08-11T07:41:23;102531.66;;;25.29;51.50
63111;BME280;49201;53.426;10.300;2022-08-11T07:43:56;102525.97;;;25.56;50.43
63111;BME280;49201;53.426;10.300;2022-08-11T07:46:38;102523.25;;;25.64;47.44
63111;BME280;49201;53.426;10.300;2022-08-11T07:49:44;102532.44;;;25.90;46.68
63111;BME280;49201;53.426;10.300;2022-08-11T07:52:33;102526.03;;;26.08;46.49
63111;BME280;49201;53.426;10.300;2022-08-11T07:55:07;102521.75;;;26.02;45.00
63111;BME280;49201;53.426;10.300;2022-08-11T07:57:36;102520.56;;;26.20;45.58
63111;BME280;49201;53.426;10.300;2022-08-11T08:00:20;102526.19;;;26.46;45.27
63111;BME280;49201;53.426;10.300;2022-08-11T08:03:06;102528.50;;;26.64;45.41
63111;BME280;49201;53.426;10.300;2022-08-11T08:05:51;102521.22;;;26.76;44.04
63111;BME280;49201;53.426;10.300;2022-08-11T08:08:37;102528.53;;;27.03;44.08
63111;BME280;49201;53.426;10.300;2022-08-11T08:11:23;102525.81;;;27.09;45.15
63111;BME280;49201;53.426;10.300;2022-08-11T08:14:08;102529.41;;;27.05;44.22
63111;BME280;49201;53.426;10.300;2022-08-11T08:16:54;102527.78;;;27.38;45.14
63111;BME280;49201;53.426;10.300;2022-08-11T08:19:42;102524.25;;;27.75;44.00
63111;BME280;49201;53.426;10.300;2022-08-11T08:22:10;102531.06;;;27.85;44.12
63111;BME280;49201;53.426;10.300;2022-08-11T08:24:39;102527.47;;;27.89;43.17
63111;BME280;49201;53.426;10.300;2022-08-11T08:27:07;102527.81;;;28.09;42.81
63111;BME280;49201;53.426;10.300;2022-08-11T08:29:35;102520.03;;;28.05;42.50
63111;BME280;49201;53.426;10.300;2022-08-11T08:32:21;102518.31;;;28.36;43.12
63111;BME280;49201;53.426;10.300;2022-08-11T08:34:50;102533.03;;;28.44;41.91
63111;BME280;49201;53.426;10.300;2022-08-11T08:37:23;102522.78;;;28.64;43.17
63111;BME280;49201;53.426;10.300;2022-08-11T08:39:52;102520.34;;;28.87;42.45
63111;BME280;49201;53.426;10.300;2022-08-11T08:42:29;102526.56;;;28.86;40.28
63111;BME280;49201;53.426;10.300;2022-08-11T08:44:58;102518.91;;;29.08;40.77
63111;BME280;49201;53.426;10.300;2022-08-11T08:47:29;102518.56;;;29.18;40.34
63111;BME280;49201;53.426;10.300;2022-08-11T08:50:02;102515.06;;;29.18;40.17
63111;BME280;49201;53.426;10.300;2022-08-11T08:52:36;102508.53;;;29.58;39.29
63111;BME280;49201;53.426;10.300;2022-08-11T08:55:06;102506.81;;;29.82;37.72
63111;BME280;49201;53.426;10.300;2022-08-11T08:57:36;102497.53;;;29.96;36.84
63111;BME280;49201;53.426;10.300;2022-08-11T09:00:04;102504.19;;;29.82;36.74
63111;BME280;49201;53.426;10.300;2022-08-11T09:02:31;102503.28;;;30.07;37.16
63111;BME280;49201;53.426;10.300;2022-08-11T09:04:57;102496.25;;;30.08;36.16
63111;BME280;49201;53.426;10.300;2022-08-11T09:07:24;102495.41;;;30.32;36.04
63111;BME280;49201;53.426;10.300;2022-08-11T09:09:57;102485.91;;;30.50;35.94
63111;BME280;49201;53.426;10.300;2022-08-11T09:12:28;102489.09;;;30.10;34.57
63111;BME280;49201;53.426;10.300;2022-08-11T09:14:56;102485.53;;;30.11;35.20
63111;BME280;49201;53.426;10.300;2022-08-11T09:17:33;102484.78;;;30.57;35.31
63111;BME280;49201;53.426;10.300;2022-08-11T09:20:06;102482.44;;;30.95;34.44
63111;BME280;49201;53.426;10.300;2022-08-11T09:22:35;102484.84;;;31.01;34.85
63111;BME280;49201;53.426;10.300;2022-08-11T09:25:20;102482.31;;;31.20;33.75
63111;BME280;49201;53.426;10.300;2022-08-11T09:28:14;102479.56;;;31.01;34.17
63111;BME280;49201;53.426;10.300;2022-08-11T09:30:56;102475.22;;;31.43;32.70
63111;BME280;49201;53.426;10.300;2022-08-11T09:33:39;102472.50;;;31.45;32.14
63111;BME280;49201;53.426;10.300;2022-08-11T09:36:29;102475.44;;;31.59;33.04
63111;BME280;49201;53.426;10.300;2022-08-11T09:39:41;102462.44;;;31.74;32.71
63111;BME280;49201;53.426;10.300;2022-08-11T09:42:38;102458.94;;;31.52;32.71
63111;BME280;49201;53.426;10.300;2022-08-11T09:45:47;102466.28;;;31.46;33.00
63111;BME280;49201;53.426;10.300;2022-08-11T09:48:30;102462.94;;;31.62;32.81
63111;BME280;49201;53.426;10.300;2022-08-11T09:51:06;102456.50;;;31.48;31.46
63111;BME280;49201;53.426;10.300;2022-08-11T09:53:43;102462.59;;;32.11;31.92
63111;BME280;49201;53.426;10.300;2022-08-11T09:56:42;102448.91;;;32.20;32.36
63111;BME280;49201;53.426;10.300;2022-08-11T09:59:29;102453.38;;;32.58;30.47
63111;BME280;49201;53.426;10.300;2022-08-11T10:02:22;102446.13;;;32.43;31.50
63111;BME280;49201;53.426;10.300;2022-08-11T10:04:51;102442.63;;;32.80;30.09
63111;BME280;49201;53.426;10.300;2022-08-11T10:07:55;102437.34;;;33.15;30.48
63111;BME280;49201;53.426;10.300;2022-08-11T10:10:53;102442.13;;;33.26;30.35
63111;BME280;49201;53.426;10.300;2022-08-11T10:13:34;102433.72;;;32.81;28.52
63111;BME280;49201;53.426;10.300;2022-08-11T10:16:34;102433.94;;;31.99;29.98
63111;BME280;49201;53.426;10.300;2022-08-11T10:19:02;102430.72;;;31.71;30.44
63111;BME280;49201;53.426;10.300;2022-08-11T10:21:37;102426.66;;;31.84;30.15
63111;BME280;49201;53.426;10.300;2022-08-11T10:24:22;102421.66;;;32.92;30.06
63111;BME280;49201;53.426;10.300;2022-08-11T10:27:16;102413.47;;;32.78;29.68
63111;BME280;49201;53.426;10.300;2022-08-11T10:29:56;102414.69;;;32.90;29.86
63111;BME280;49201;53.426;10.300;2022-08-11T10:32:55;102396.78;;;33.12;30.26
63111;BME280;49201;53.426;10.300;2022-08-11T10:35:53;102407.06;;;32.07;30.29
63111;BME280;49201;53.426;10.300;2022-08-11T10:38:22;102406.09;;;32.29;30.00
63111;BME280;49201;53.426;10.300;2022-08-11T10:40:57;102403.22;;;33.25;29.69
63111;BME280;49201;53.426;10.300;2022-08-11T10:43:51;102400.44;;;33.62;29.21
63111;BME280;49201;53.426;10.300;2022-08-11T10:46:43;102390.44;;;33.67;30.61
63111;BME280;49201;53.426;10.300;2022-08-11T10:49:31;102393.06;;;34.01;29.46
63111;BME280;49201;53.426;10.300;2022-08-11T10:56:01;102395.44;;;33.90;27.60
63111;BME280;49201;53.426;10.300;2022-08-11T11:02:27;102390.69;;;33.45;27.89
63111;BME280;49201;53.426;10.300;2022-08-11T11:08:15;102381.13;;;33.41;28.77
63111;BME280;49201;53.426;10.300;2022-08-11T11:15:17;102371.28;;;33.77;27.82
63111;BME280;49201;53.426;10.300;2022-08-11T11:21:56;102373.56;;;33.34;26.94
63111;BME280;49201;53.426;10.300;2022-08-11T11:38:01;102368.53;;;34.11;27.12
63111;BME280;49201;53.426;10.300;2022-08-11T11:43:59;102373.16;;;34.40;26.24
63111;BME280;49201;53.426;10.300;2022-08-11T11:46:34;102371.84;;;32.60;27.73
63111;BME280;49201;53.426;10.300;2022-08-11T11:49:26;102371.88;;;33.14;27.41
63111;BME280;49201;53.426;10.300;2022-08-11T11:52:06;102371.94;;;32.96;28.41
63111;BME280;49201;53.426;10.300;2022-08-11T11:54:54;102370.25;;;33.29;28.07
63111;BME280;49201;53.426;10.300;2022-08-11T11:57:50;102366.28;;;33.54;26.52
63111;BME280;49201;53.426;10.300;2022-08-11T12:00:48;102365.28;;;33.04;26.85
63111;BME280;49201;53.426;10.300;2022-08-11T12:03:41;102363.97;;;33.48;26.70
63111;BME280;49201;53.426;10.300;2022-08-11T12:06:36;102361.50;;;34.10;25.88
63111;BME280;49201;53.426;10.300;2022-08-11T12:09:35;102357.81;;;34.13;25.76
63111;BME280;49201;53.426;10.300;2022-08-11T12:12:25;102359.03;;;34.23;25.27
63111;BME280;49201;53.426;10.300;2022-08-11T12:15:32;102348.97;;;34.12;26.17
63111;BME280;49201;53.426;10.300;2022-08-11T12:21:40;102344.69;;;34.25;25.04
63111;BME280;49201;53.426;10.300;2022-08-11T12:24:28;102345.84;;;34.37;25.57
63111;BME280;49201;53.426;10.300;2022-08-11T12:27:41;102337.28;;;34.47;25.46
63111;BME280;49201;53.426;10.300;2022-08-11T12:30:23;102346.53;;;34.25;25.20
63111;BME280;49201;53.426;10.300;2022-08-11T12:33:04;102339.97;;;34.15;24.80
63111;BME280;49201;53.426;10.300;2022-08-11T12:35:30;102334.75;;;34.13;23.54
63111;BME280;49201;53.426;10.300;2022-08-11T12:38:05;102337.88;;;33.72;24.32
63111;BME280;49201;53.426;10.300;2022-08-11T12:40:35;102343.25;;;33.38;24.47
63111;BME280;49201;53.426;10.300;2022-08-11T12:43:41;102330.69;;;33.06;25.53
63111;BME280;49201;53.426;10.300;2022-08-11T12:46:36;102337.25;;;33.16;25.43
63111;BME280;49201;53.426;10.300;2022-08-11T12:49:16;102326.22;;;32.89;24.92
63111;BME280;49201;53.426;10.300;2022-08-11T12:52:08;102303.34;;;32.68;25.02
63111;BME280;49201;53.426;10.300;2022-08-11T12:57:16;102312.91;;;33.42;24.60
63111;BME280;49201;53.426;10.300;2022-08-11T13:00:04;102303.28;;;33.89;24.95
63111;BME280;49201;53.426;10.300;2022-08-11T13:02:49;102303.72;;;34.12;25.08
63111;BME280;49201;53.426;10.300;2022-08-11T13:05:34;102302.53;;;34.02;24.88
63111;BME280;49201;53.426;10.300;2022-08-11T13:08:04;102300.25;;;34.12;24.62
63111;BME280;49201;53.426;10.300;2022-08-11T13:10:34;102305.22;;;34.18;25.81
63111;BME280;49201;53.426;10.300;2022-08-11T13:13:19;102302.91;;;34.43;25.73
63111;BME280;49201;53.426;10.300;2022-08-11T13:15:51;102292.88;;;34.48;25.27
63111;BME280;49201;53.426;10.300;2022-08-11T13:18:19;102289.94;;;34.52;25.46
63111;BME280;49201;53.426;10.300;2022-08-11T13:20:50;102286.06;;;34.27;24.13
63111;BME280;49201;53.426;10.300;2022-08-11T13:23:16;102276.22;;;34.44;25.49
63111;BME280;49201;53.426;10.300;2022-08-11T13:25:42;102275.44;;;34.58;25.65
63111;BME280;49201;53.426;10.300;2022-08-11T13:28:08;102280.41;;;34.48;24.90
63111;BME280;49201;53.426;10.300;2022-08-11T13:30:37;102274.06;;;34.51;26.21
63111;BME280;49201;53.426;10.300;2022-08-11T13:33:22;102266.50;;;34.43;26.02
63111;BME280;49201;53.426;10.300;2022-08-11T13:35:50;102273.94;;;34.68;26.27
63111;BME280;49201;53.426;10.300;2022-08-11T13:38:18;102273.00;;;34.69;25.46
63111;BME280;49201;53.426;10.300;2022-08-11T13:40:46;102265.53;;;34.60;25.54
63111;BME280;49201;53.426;10.300;2022-08-11T13:43:14;102269.75;;;34.64;26.19
63111;BME280;49201;53.426;10.300;2022-08-11T13:45:41;102261.63;;;34.36;26.07
63111;BME280;49201;53.426;10.300;2022-08-11T13:48:11;102266.06;;;34.51;25.36
63111;BME280;49201;53.426;10.300;2022-08-11T13:50:37;102263.91;;;34.57;24.83
63111;BME280;49201;53.426;10.300;2022-08-11T13:53:24;102262.50;;;34.36;26.10
63111;BME280;49201;53.426;10.300;2022-08-11T13:55:53;102263.53;;;34.34;25.26
63111;BME280;49201;53.426;10.300;2022-08-11T13:58:22;102262.66;;;34.49;25.68
63111;BME280;49201;53.426;10.300;2022-08-11T14:00:54;102253.88;;;34.47;25.61
63111;BME280;49201;53.426;10.300;2022-08-11T14:03:26;102252.59;;;34.38;26.18
63111;BME280;49201;53.426;10.300;2022-08-11T14:05:53;102252.31;;;34.43;24.61
63111;BME280;49201;53.426;10.300;2022-08-11T14:08:26;102249.06;;;34.38;26.70
63111;BME280;49201;53.426;10.300;2022-08-11T14:10:58;102240.75;;;34.59;25.28
63111;BME280;49201;53.426;10.300;2022-08-11T14:13:43;102239.41;;;34.66;25.06
63111;BME280;49201;53.426;10.300;2022-08-11T14:16:20;102240.81;;;33.96;25.54
63111;BME280;49201;53.426;10.300;2022-08-11T14:18:51;102229.22;;;34.12;25.83
63111;BME280;49201;53.426;10.300;2022-08-11T14:21:20;102233.88;;;34.24;26.38
63111;BME280;49201;53.426;10.300;2022-08-11T14:24:09;102230.63;;;34.35;24.95
63111;BME280;49201;53.426;10.300;2022-08-11T14:26:37;102229.06;;;34.15;26.47
63111;BME280;49201;53.426;10.300;2022-08-11T14:29:12;102227.91;;;34.36;26.27
63111;BME280;49201;53.426;10.300;2022-08-11T14:31:49;102220.75;;;34.37;24.97
63111;BME280;49201;53.426;10.300;2022-08-11T14:34:19;102222.44;;;34.38;25.21
63111;BME280;49201;53.426;10.300;2022-08-11T14:37:00;102224.19;;;34.23;25.78
63111;BME280;49201;53.426;10.300;2022-08-11T14:39:39;102219.63;;;34.25;26.32
63111;BME280;49201;53.426;10.300;2022-08-11T14:42:14;102218.66;;;34.26;26.13
63111;BME280;49201;53.426;10.300;2022-08-11T14:45:02;102220.50;;;34.41;25.01
63111;BME280;49201;53.426;10.300;2022-08-11T14:47:52;102215.06;;;33.81;25.50
63111;BME280;49201;53.426;10.300;2022-08-11T14:50:22;102214.38;;;33.77;24.77
63111;BME280;49201;53.426;10.300;2022-08-11T14:52:50;102221.59;;;33.26;25.45
63111;BME280;49201;53.426;10.300;2022-08-11T14:55:18;102220.53;;;33.78;26.04
63111;BME280;49201;53.426;10.300;2022-08-11T14:58:03;102220.09;;;33.70;25.10
63111;BME280;49201;53.426;10.300;2022-08-11T15:00:33;102215.59;;;33.87;25.60
63111;BME280;49201;53.426;10.300;2022-08-11T15:02:59;102212.88;;;33.72;26.21
63111;BME280;49201;53.426;10.300;2022-08-11T15:05:35;102210.34;;;33.86;25.49
63111;BME280;49201;53.426;10.300;2022-08-11T15:08:01;102214.91;;;33.51;24.65
63111;BME280;49201;53.426;10.300;2022-08-11T15:10:27;102206.38;;;33.62;26.29
63111;BME280;49201;53.426;10.300;2022-08-11T15:12:53;102204.88;;;33.56;25.23
63111;BME280;49201;53.426;10.300;2022-08-11T15:15:22;102200.81;;;33.34;25.29
63111;BME280;49201;53.426;10.300;2022-08-11T15:18:11;102203.03;;;32.92;24.43
63111;BME280;49201;53.426;10.300;2022-08-11T15:20:39;102201.94;;;32.79;25.93
63111;BME280;49201;53.426;10.300;2022-08-11T15:23:25;102200.34;;;32.75;26.03
63111;BME280;49201;53.426;10.300;2022-08-11T15:26:18;102191.00;;;32.85;26.72
63111;BME280;49201;53.426;10.300;2022-08-11T15:29:08;102193.09;;;32.78;26.32
63111;BME280;49201;53.426;10.300;2022-08-11T15:31:53;102192.09;;;32.64;27.99
63111;BME280;49201;53.426;10.300;2022-08-11T15:34:39;102194.66;;;32.48;29.28
63111;BME280;49201;53.426;10.300;2022-08-11T15:37:23;102194.59;;;32.31;29.96
63111;BME280;49201;53.426;10.300;2022-08-11T15:40:02;102184.88;;;32.32;29.93
63111;BME280;49201;53.426;10.300;2022-08-11T15:46:02;102190.84;;;31.81;30.15
63111;BME280;49201;53.426;10.300;2022-08-11T15:51:33;102192.19;;;31.53;31.11
63111;BME280;49201;53.426;10.300;2022-08-11T15:53:59;102179.72;;;31.55;31.36
63111;BME280;49201;53.426;10.300;2022-08-11T15:56:30;102183.66;;;31.46;31.27
63111;BME280;49201;53.426;10.300;2022-08-11T15:58:57;102187.78;;;31.33;32.03
63111;BME280;49201;53.426;10.300;2022-08-11T16:01:44;102193.31;;;31.07;32.42
63111;BME280;49201;53.426;10.300;2022-08-11T16:04:31;102189.38;;;30.97;33.07
63111;BME280;49201;53.426;10.300;2022-08-11T16:07:01;102190.41;;;30.93;33.16
63111;BME280;49201;53.426;10.300;2022-08-11T16:09:35;102196.19;;;30.61;33.34
63111;BME280;49201;53.426;10.300;2022-08-11T16:12:05;102190.13;;;30.59;33.26
63111;BME280;49201;53.426;10.300;2022-08-11T16:14:35;102185.22;;;30.50;33.70
63111;BME280;49201;53.426;10.300;2022-08-11T16:17:23;102192.66;;;30.41;33.96
63111;BME280;49201;53.426;10.300;2022-08-11T16:19:52;102188.22;;;30.41;33.92
63111;BME280;49201;53.426;10.300;2022-08-11T16:22:23;102178.50;;;30.20;34.07
63111;BME280;49201;53.426;10.300;2022-08-11T16:24:55;102183.53;;;30.04;34.29
63111;BME280;49201;53.426;10.300;2022-08-11T16:27:33;102183.66;;;30.01;34.74
63111;BME280;49201;53.426;10.300;2022-08-11T16:30:01;102179.59;;;29.93;34.66
63111;BME280;49201;53.426;10.300;2022-08-11T16:32:30;102186.81;;;29.88;34.34
63111;BME280;49201;53.426;10.300;2022-08-11T16:35:06;102183.94;;;29.72;34.99
63111;BME280;49201;53.426;10.300;2022-08-11T16:37:52;102186.69;;;29.69;34.92
63111;BME280;49201;53.426;10.300;2022-08-11T16:40:38;102194.03;;;29.61;34.51
63111;BME280;49201;53.426;10.300;2022-08-11T16:43:07;102191.06;;;29.46;35.19
63111;BME280;49201;53.426;10.300;2022-08-11T16:45:53;102191.28;;;29.40;34.54
63111;BME280;49201;53.426;10.300;2022-08-11T16:48:40;102183.03;;;29.26;35.47
63111;BME280;49201;53.426;10.300;2022-08-11T16:51:09;102193.81;;;29.20;35.97
63111;BME280;49201;53.426;10.300;2022-08-11T16:53:36;102189.66;;;29.13;35.00
63111;BME280;49201;53.426;10.300;2022-08-11T16:56:03;102183.78;;;29.05;35.57
63111;BME280;49201;53.426;10.300;2022-08-11T16:58:30;102176.19;;;28.96;35.93
63111;BME280;49201;53.426;10.300;2022-08-11T17:01:19;102175.63;;;28.86;35.68
63111;BME280;49201;53.426;10.300;2022-08-11T17:03:51;102173.94;;;28.84;35.50
63111;BME280;49201;53.426;10.300;2022-08-11T17:06:37;102183.75;;;28.80;35.74
63111;BME280;49201;53.426;10.300;2022-08-11T17:09:26;102178.78;;;28.71;35.82
63111;BME280;49201;53.426;10.300;2022-08-11T17:12:12;102177.69;;;28.52;35.62
63111;BME280;49201;53.426;10.300;2022-08-11T17:14:59;102187.38;;;28.52;35.97
63111;BME280;49201;53.426;10.300;2022-08-11T17:17:32;102188.53;;;28.43;36.40
63111;BME280;49201;53.426;10.300;2022-08-11T17:20:02;102183.41;;;28.37;36.01
63111;BME280;49201;53.426;10.300;2022-08-11T17:22:33;102177.59;;;28.28;36.16
63111;BME280;49201;53.426;10.300;2022-08-11T17:25:19;102174.22;;;28.24;36.59
63111;BME280;49201;53.426;10.300;2022-08-11T17:27:45;102174.28;;;28.21;37.40
63111;BME280;49201;53.426;10.300;2022-08-11T17:30:12;102175.53;;;28.10;37.47
63111;BME280;49201;53.426;10.300;2022-08-11T17:32:46;102176.53;;;28.06;36.78